createdAt,value
2019-01-10T00:01:13.734Z,3.25
2019-01-10T00:03:42.800Z,2.47
2019-01-10T00:06:11.871Z,3.17
2019-01-10T00:08:40.931Z,1.95
2019-01-10T00:11:10.127Z,3.17
2019-01-10T00:13:39.199Z,2.45
2019-01-10T00:16:08.323Z,2.77
2019-01-10T00:18:37.648Z,2.30
2019-01-10T00:21:06.718Z,2.33
2019-01-10T00:23:35.784Z,2.27
2019-01-10T00:26:04.940Z,3.25
2019-01-10T00:28:34.016Z,2.98
2019-01-10T00:31:03.194Z,3.45
2019-01-10T00:33:32.247Z,2.75
2019-01-10T00:36:01.306Z,2.47
2019-01-10T00:38:30.401Z,2.35
2019-01-10T00:40:59.371Z,2.45
2019-01-10T00:43:28.535Z,1.80
2019-01-10T00:45:57.625Z,2.08
2019-01-10T00:48:26.689Z,2.40
2019-01-10T00:50:55.775Z,1.95
2019-01-10T00:53:24.835Z,2.20
2019-01-10T00:55:53.937Z,3.12
2019-01-10T00:58:22.924Z,2.10
2019-01-10T01:00:53.604Z,1.75
2019-01-10T01:03:22.668Z,3.22
2019-01-10T01:05:51.715Z,1.50
2019-01-10T01:08:20.840Z,2.42
2019-01-10T01:10:49.930Z,2.33
2019-01-10T01:13:18.985Z,2.05
2019-01-10T01:15:48.053Z,1.98
2019-01-10T01:18:17.125Z,1.50
2019-01-10T01:20:46.197Z,2.77
2019-01-10T01:23:15.355Z,2.40
2019-01-10T01:25:44.486Z,1.90
2019-01-10T01:28:13.502Z,2.05
2019-01-10T01:30:42.538Z,1.98
2019-01-10T01:33:11.725Z,1.90
2019-01-10T01:35:40.826Z,2.47
2019-01-10T01:38:09.904Z,2.35
2019-01-10T01:40:39.012Z,2.12
2019-01-10T01:43:08.069Z,2.17
2019-01-10T01:45:39.308Z,1.50
2019-01-10T01:48:08.396Z,1.90
2019-01-10T01:50:37.505Z,1.70
2019-01-10T01:53:06.581Z,1.92
2019-01-10T01:55:35.667Z,1.40
2019-01-10T01:58:04.830Z,2.08
2019-01-10T02:00:34.384Z,1.65
2019-01-10T02:03:03.545Z,2.20
2019-01-10T02:05:32.666Z,2.27
2019-01-10T02:08:02.601Z,1.80
2019-01-10T02:10:31.680Z,2.92
2019-01-10T02:13:00.782Z,1.90
2019-01-10T02:15:29.930Z,1.67
2019-01-10T02:17:59.081Z,2.00
2019-01-10T02:20:28.185Z,2.10
2019-01-10T02:22:57.266Z,2.15
2019-01-10T02:25:26.327Z,1.75
2019-01-10T02:28:02.792Z,1.52
2019-01-10T02:30:41.612Z,2.10
2019-01-10T02:33:03.070Z,1.85
2019-01-10T02:35:32.200Z,2.00
2019-01-10T02:38:01.266Z,1.67
2019-01-10T02:40:30.286Z,2.45
2019-01-10T02:42:59.248Z,1.90
2019-01-10T02:45:28.406Z,1.50
2019-01-10T02:47:57.448Z,2.72
2019-01-10T02:50:26.703Z,2.33
2019-01-10T02:52:55.755Z,2.72
2019-01-10T02:55:24.863Z,1.77
2019-01-10T02:57:53.937Z,2.10
2019-01-10T03:00:25.530Z,1.80
2019-01-10T03:02:54.722Z,2.37
2019-01-10T03:05:24.266Z,1.67
2019-01-10T03:07:53.464Z,1.90
2019-01-10T03:10:25.135Z,1.77
2019-01-10T03:12:54.274Z,2.12
2019-01-10T03:15:23.395Z,1.47
2019-01-10T03:17:52.453Z,2.70
2019-01-10T03:20:22.849Z,2.42
2019-01-10T03:22:52.006Z,2.10
2019-01-10T03:25:21.064Z,2.00
2019-01-10T03:27:50.281Z,2.45
2019-01-10T03:30:20.413Z,1.60
2019-01-10T03:32:49.829Z,1.90
2019-01-10T03:35:18.936Z,1.95
2019-01-10T03:37:48.003Z,2.25
2019-01-10T03:40:19.078Z,2.10
2019-01-10T03:42:48.149Z,1.30
2019-01-10T03:45:18.507Z,1.47
2019-01-10T03:47:47.809Z,1.87
2019-01-10T03:50:17.251Z,1.85
2019-01-10T03:52:46.822Z,2.45
2019-01-10T03:55:16.108Z,1.87
2019-01-10T03:57:45.294Z,2.20
2019-01-10T04:00:19.766Z,1.37
2019-01-10T04:02:48.784Z,1.75
2019-01-10T04:05:17.984Z,1.30
2019-01-10T04:07:47.146Z,2.72
2019-01-10T04:10:16.276Z,1.55
2019-01-10T04:12:45.375Z,1.42
2019-01-10T04:15:14.860Z,1.60
2019-01-10T04:17:43.951Z,2.10
2019-01-10T04:20:14.445Z,2.08
2019-01-10T04:22:43.561Z,2.02
2019-01-10T04:25:12.870Z,2.62
2019-01-10T04:27:43.707Z,1.80
2019-01-10T04:30:17.904Z,2.12
2019-01-10T04:32:47.155Z,1.00
2019-01-10T04:35:16.261Z,1.45
2019-01-10T04:37:45.290Z,1.92
2019-01-10T04:40:16.639Z,2.15
2019-01-10T04:42:45.652Z,1.60
2019-01-10T04:45:14.931Z,2.35
2019-01-10T04:47:44.037Z,1.82
2019-01-10T04:50:13.726Z,2.00
2019-01-10T04:52:42.738Z,1.85
2019-01-10T04:55:27.934Z,1.52
2019-01-10T04:57:57.060Z,2.00
2019-01-10T05:00:26.455Z,1.30
2019-01-10T05:02:55.509Z,1.87
2019-01-10T05:05:24.579Z,2.58
2019-01-10T05:07:53.737Z,2.10
2019-01-10T05:10:22.823Z,1.70
2019-01-10T05:12:51.858Z,1.85
2019-01-10T05:15:21.162Z,1.95
2019-01-10T05:17:50.273Z,1.62
2019-01-10T05:20:20.338Z,1.30
2019-01-10T05:22:49.599Z,1.20
2019-01-10T05:25:18.751Z,1.40
2019-01-10T05:27:48.041Z,2.15
2019-01-10T05:30:24.460Z,1.70
2019-01-10T05:32:54.043Z,2.05
2019-01-10T05:35:23.203Z,1.75
2019-01-10T05:37:52.302Z,2.35
2019-01-10T05:40:21.651Z,1.87
2019-01-10T05:42:50.840Z,1.75
2019-01-10T05:45:20.090Z,1.70
2019-01-10T05:47:49.396Z,1.32
2019-01-10T05:50:18.503Z,1.50
2019-01-10T05:52:47.615Z,2.27
2019-01-10T05:55:18.947Z,2.02
2019-01-10T05:57:48.062Z,2.30
2019-01-10T06:00:25.764Z,2.35
2019-01-10T06:02:54.869Z,2.40
2019-01-10T06:05:23.908Z,1.87
2019-01-10T06:07:52.997Z,2.42
2019-01-10T06:10:24.358Z,1.87
2019-01-10T06:12:53.434Z,2.40
2019-01-10T06:15:22.888Z,2.10
2019-01-10T06:17:52.107Z,2.40
2019-01-10T06:20:21.607Z,1.92
2019-01-10T06:22:50.706Z,2.05
2019-01-10T06:25:19.885Z,1.62
2019-01-10T06:27:49.058Z,1.50
2019-01-10T06:30:22.864Z,1.60
2019-01-10T06:32:52.086Z,1.92
2019-01-10T06:35:21.168Z,1.60
2019-01-10T06:37:50.228Z,1.92
2019-01-10T06:40:20.881Z,2.25
2019-01-10T06:42:49.947Z,1.80
2019-01-10T06:45:24.456Z,1.50
2019-01-10T06:47:53.621Z,1.50
2019-01-10T06:50:22.723Z,1.87
2019-01-10T06:52:51.825Z,1.85
2019-01-10T06:55:20.956Z,2.00
2019-01-10T06:57:49.990Z,2.20
2019-01-10T07:00:21.142Z,1.52
2019-01-10T07:02:50.470Z,1.62
2019-01-10T07:05:19.756Z,2.58
2019-01-10T07:07:56.212Z,1.85
2019-01-10T07:10:22.210Z,2.15
2019-01-10T07:12:51.267Z,1.90
2019-01-10T07:15:20.334Z,1.87
2019-01-10T07:17:49.559Z,1.98
2019-01-10T07:20:18.764Z,2.17
2019-01-10T07:22:49.361Z,2.12
2019-01-10T07:25:18.557Z,2.47
2019-01-10T07:27:51.470Z,2.02
2019-01-10T07:30:35.468Z,2.58
2019-01-10T07:32:56.927Z,2.08
2019-01-10T07:35:26.080Z,2.27
2019-01-10T07:37:58.411Z,2.27
2019-01-10T07:40:28.078Z,1.90
2019-01-10T07:42:57.668Z,2.42
2019-01-10T07:45:30.277Z,1.70
2019-01-10T07:47:59.387Z,1.87
2019-01-10T07:50:36.061Z,3.67
2019-01-10T07:53:07.255Z,2.00
2019-01-10T07:55:37.524Z,2.37
2019-01-10T07:58:06.588Z,2.98
2019-01-10T08:00:35.928Z,2.17
2019-01-10T08:03:05.496Z,2.40
2019-01-10T08:05:34.608Z,1.70
2019-01-10T08:08:03.812Z,1.57
2019-01-10T08:10:32.926Z,2.27
2019-01-10T08:13:01.973Z,2.10
2019-01-10T08:15:31.020Z,1.87
2019-01-10T08:18:00.087Z,1.72
2019-01-10T08:20:29.171Z,2.00
2019-01-10T08:22:58.245Z,1.75
2019-01-10T08:25:27.312Z,1.77
2019-01-10T08:27:56.393Z,2.30
2019-01-10T08:30:26.000Z,2.17
2019-01-10T08:32:55.069Z,1.85
2019-01-10T08:35:28.514Z,2.67
2019-01-10T08:37:57.752Z,1.40
2019-01-10T08:40:27.106Z,2.27
2019-01-10T08:42:56.506Z,1.87
2019-01-10T08:45:26.063Z,2.12
2019-01-10T08:47:55.394Z,2.22
2019-01-10T08:50:25.756Z,2.20
2019-01-10T08:52:55.182Z,2.37
2019-01-10T08:55:24.499Z,2.12
2019-01-10T08:57:53.998Z,2.67
2019-01-10T09:00:24.393Z,2.20
2019-01-10T09:02:54.171Z,2.00
2019-01-10T09:05:23.335Z,1.87
2019-01-10T09:07:52.567Z,2.27
2019-01-10T09:10:29.925Z,2.15
2019-01-10T09:12:59.139Z,2.52
2019-01-10T09:15:34.734Z,1.90
2019-01-10T09:18:00.412Z,2.40
2019-01-10T09:20:29.672Z,2.50
2019-01-10T09:22:58.826Z,2.40
2019-01-10T09:25:28.017Z,2.17
2019-01-10T09:27:57.550Z,1.90
2019-01-10T09:30:26.782Z,2.47
2019-01-10T09:32:56.024Z,2.20
2019-01-10T09:35:25.263Z,2.37
2019-01-10T09:37:54.552Z,2.30
2019-01-10T09:40:24.103Z,2.27
2019-01-10T09:42:53.485Z,2.62
2019-01-10T09:45:24.697Z,2.15
2019-01-10T09:47:53.849Z,2.02
2019-01-10T09:50:23.502Z,2.30
2019-01-10T09:52:53.410Z,2.90
2019-01-10T09:55:22.705Z,2.47
2019-01-10T09:57:51.995Z,2.17
2019-01-10T10:00:31.065Z,2.65
2019-01-10T10:02:59.977Z,2.52
2019-01-10T10:05:29.203Z,2.52
2019-01-10T10:07:58.429Z,2.15
2019-01-10T10:10:27.595Z,3.10
2019-01-10T10:12:56.861Z,2.30
2019-01-10T10:15:26.103Z,2.20
2019-01-10T10:17:55.289Z,2.25
2019-01-10T10:20:25.643Z,2.22
2019-01-10T10:22:55.165Z,2.62
2019-01-10T10:25:25.935Z,2.12
2019-01-10T10:28:01.409Z,3.02
2019-01-10T10:30:30.623Z,2.05
2019-01-10T10:32:59.907Z,2.27
2019-01-10T10:35:29.029Z,2.27
2019-01-10T10:37:58.175Z,1.95
2019-01-10T10:40:27.359Z,1.87
2019-01-10T10:42:56.528Z,2.40
2019-01-10T10:45:25.863Z,2.20
2019-01-10T10:47:54.975Z,2.20
2019-01-10T10:50:28.949Z,2.00
2019-01-10T10:52:58.139Z,2.62
2019-01-10T10:55:27.341Z,2.72
2019-01-10T10:57:56.566Z,3.10
2019-01-10T11:00:28.509Z,3.08
2019-01-10T11:02:58.025Z,3.37
2019-01-10T11:05:27.593Z,3.40
2019-01-10T11:07:56.878Z,3.00
2019-01-10T11:10:26.179Z,3.35
2019-01-10T11:12:55.391Z,3.12
2019-01-10T11:15:24.518Z,3.45
2019-01-10T11:17:53.904Z,3.00
2019-01-10T11:20:24.090Z,2.35
2019-01-10T11:22:53.684Z,2.72
2019-01-10T11:25:27.257Z,3.33
2019-01-10T11:27:56.883Z,2.95
2019-01-10T11:30:26.197Z,2.62
2019-01-10T11:32:55.463Z,2.60
2019-01-10T11:35:24.632Z,2.27
2019-01-10T11:37:53.722Z,2.87
2019-01-10T11:40:23.378Z,2.17
2019-01-10T11:42:52.713Z,2.20
2019-01-10T11:45:26.462Z,2.47
2019-01-10T11:47:55.519Z,2.27
2019-01-10T11:50:24.804Z,3.10
2019-01-10T11:52:54.045Z,1.67
2019-01-10T11:55:23.310Z,1.98
2019-01-10T11:57:52.465Z,2.10
2019-01-10T12:00:25.016Z,2.33
2019-01-10T12:02:54.226Z,1.80
2019-01-10T12:05:23.459Z,2.02
2019-01-10T12:07:52.850Z,2.50
2019-01-10T12:10:22.189Z,2.92
2019-01-10T12:12:51.365Z,1.87
2019-01-10T12:15:20.578Z,2.20
2019-01-10T12:17:49.683Z,2.27
2019-01-10T12:20:18.912Z,2.40
2019-01-10T12:22:48.260Z,2.87
2019-01-10T12:25:17.541Z,2.27
2019-01-10T12:27:50.228Z,2.47
2019-01-10T12:30:21.518Z,2.85
2019-01-10T12:32:50.688Z,2.27
2019-01-10T12:35:19.973Z,3.27
2019-01-10T12:37:49.237Z,2.98
2019-01-10T12:40:18.354Z,2.17
2019-01-10T12:42:47.513Z,2.70
2019-01-10T12:45:20.321Z,2.50
2019-01-10T12:47:49.487Z,3.17
2019-01-10T12:50:36.961Z,2.65
2019-01-10T12:53:07.623Z,3.92
2019-01-10T12:55:36.976Z,3.80
2019-01-10T12:58:06.857Z,3.00
2019-01-10T13:00:36.072Z,2.30
2019-01-10T13:03:05.294Z,2.20
2019-01-10T13:05:34.675Z,2.50
2019-01-10T13:08:04.130Z,2.62
2019-01-10T13:10:33.284Z,2.52
2019-01-10T13:13:02.406Z,2.35
2019-01-10T13:15:31.530Z,2.47
2019-01-10T13:18:00.652Z,1.62
2019-01-10T13:20:29.718Z,1.12
2019-01-10T13:22:58.878Z,2.25
2019-01-10T13:25:28.123Z,1.15
2019-01-10T13:27:59.995Z,2.37
2019-01-10T13:30:29.380Z,2.45
2019-01-10T13:32:58.813Z,3.00
2019-01-10T13:35:28.511Z,3.00
2019-01-10T13:37:57.767Z,2.47
2019-01-10T13:40:27.263Z,2.25
2019-01-10T13:42:56.793Z,2.25
2019-01-10T13:45:26.219Z,2.70
2019-01-10T13:47:56.101Z,2.30
2019-01-10T13:50:28.279Z,1.82
2019-01-10T13:52:57.551Z,1.87
2019-01-10T13:55:27.107Z,1.90
2019-01-10T13:57:56.771Z,2.27
2019-01-10T14:00:38.907Z,2.02
2019-01-10T14:03:11.663Z,2.10
2019-01-10T14:05:40.210Z,1.65
2019-01-10T14:08:09.728Z,2.00
2019-01-10T14:10:39.526Z,1.98
2019-01-10T14:13:08.744Z,2.47
2019-01-10T14:15:38.305Z,3.15
2019-01-10T14:18:09.182Z,3.25
2019-01-10T14:20:38.493Z,3.40
2019-01-10T14:23:10.306Z,3.05
2019-01-10T14:25:39.494Z,3.08
2019-01-10T14:28:09.050Z,2.87
2019-01-10T14:30:39.762Z,2.17
2019-01-10T14:33:13.444Z,2.52
2019-01-10T14:35:42.669Z,2.72
2019-01-10T14:38:12.616Z,2.40
2019-01-10T14:40:42.513Z,2.37
2019-01-10T14:43:12.980Z,2.67
2019-01-10T14:45:47.675Z,2.40
2019-01-10T14:48:16.860Z,2.77
2019-01-10T14:50:46.177Z,3.25
2019-01-10T14:53:15.414Z,2.52
2019-01-10T14:55:44.878Z,2.83
2019-01-10T14:58:14.169Z,2.60
2019-01-10T15:00:46.223Z,2.72
2019-01-10T15:03:15.331Z,3.58
2019-01-10T15:05:44.661Z,3.92
2019-01-10T15:08:13.989Z,3.25
2019-01-10T15:10:43.711Z,2.75
2019-01-10T15:13:13.465Z,2.37
2019-01-10T15:15:42.688Z,1.87
2019-01-10T15:18:12.015Z,1.90
2019-01-10T15:20:41.296Z,1.67
2019-01-10T15:23:10.534Z,1.72
2019-01-10T15:25:39.817Z,1.87
2019-01-10T15:28:09.123Z,2.00
2019-01-10T15:30:38.461Z,2.02
2019-01-10T15:33:07.663Z,2.00
2019-01-10T15:35:36.931Z,2.22
2019-01-10T15:38:06.173Z,2.60
2019-01-10T15:40:35.643Z,2.35
2019-01-10T15:43:06.529Z,2.08
2019-01-10T15:45:36.173Z,1.90
2019-01-10T15:48:05.978Z,2.35
2019-01-10T15:50:35.307Z,2.02
2019-01-10T15:53:04.662Z,1.90
2019-01-10T15:55:33.923Z,1.62
2019-01-10T15:58:03.288Z,1.65
2019-01-10T16:00:32.854Z,1.40
2019-01-10T16:03:02.000Z,1.60
2019-01-10T16:05:31.601Z,2.12
2019-01-10T16:08:01.184Z,2.02
2019-01-10T16:10:31.557Z,2.08
2019-01-10T16:13:02.140Z,2.05
2019-01-10T16:15:31.883Z,2.20
2019-01-10T16:18:01.579Z,2.15
2019-01-10T16:20:31.172Z,2.30
2019-01-10T16:23:00.837Z,1.75
2019-01-10T16:25:30.340Z,2.05
2019-01-10T16:28:00.103Z,1.90
2019-01-10T16:30:30.705Z,2.83
2019-01-10T16:33:00.501Z,2.80
2019-01-10T16:35:30.767Z,2.33
2019-01-10T16:38:00.927Z,2.60
2019-01-10T16:40:30.511Z,1.60
2019-01-10T16:43:00.408Z,2.17
2019-01-10T16:45:34.315Z,1.37
2019-01-10T16:48:04.745Z,1.00
2019-01-10T16:50:34.414Z,1.15
2019-01-10T16:53:04.935Z,0.75
2019-01-10T16:55:34.983Z,1.12
2019-01-10T16:58:04.814Z,1.70
2019-01-10T17:00:35.593Z,1.57
2019-01-10T17:03:06.354Z,1.32
2019-01-10T17:05:35.826Z,1.20
2019-01-10T17:08:06.242Z,1.22
2019-01-10T17:10:35.974Z,1.12
2019-01-10T17:13:05.685Z,1.37
2019-01-10T17:15:35.418Z,1.17
2019-01-10T17:18:05.311Z,0.98
2019-01-10T17:20:35.316Z,1.47
2019-01-10T17:23:04.883Z,0.90
2019-01-10T17:25:34.454Z,0.90
2019-01-10T17:28:04.492Z,0.90
2019-01-10T17:30:34.051Z,1.47
2019-01-10T17:33:04.851Z,2.33
2019-01-10T17:35:34.805Z,2.90
2019-01-10T17:38:05.219Z,2.60
2019-01-10T17:40:34.867Z,1.85
2019-01-10T17:43:06.185Z,1.77
2019-01-10T17:45:37.265Z,1.30
2019-01-10T17:48:09.192Z,1.55
2019-01-10T17:50:38.805Z,1.05
2019-01-10T17:53:08.427Z,1.30
2019-01-10T17:55:37.926Z,1.70
2019-01-10T17:58:08.798Z,1.62
2019-01-10T18:00:38.788Z,1.62
2019-01-10T18:03:08.475Z,1.45
2019-01-10T18:05:38.047Z,1.80
2019-01-10T18:08:07.951Z,1.60
2019-01-10T18:10:37.701Z,1.42
2019-01-10T18:13:07.321Z,2.15
2019-01-10T18:15:36.971Z,2.33
2019-01-10T18:18:07.704Z,2.08
2019-01-10T18:20:39.658Z,2.15
2019-01-10T18:23:10.205Z,1.75
2019-01-10T18:25:39.860Z,1.52
2019-01-10T18:28:09.534Z,1.77
2019-01-10T18:30:43.355Z,1.90
2019-01-10T18:33:10.609Z,1.80
2019-01-10T18:35:40.183Z,2.37
2019-01-10T18:38:09.997Z,2.83
2019-01-10T18:40:39.592Z,3.80
2019-01-10T18:43:09.362Z,3.30
2019-01-10T18:45:40.855Z,3.50
2019-01-10T18:48:10.660Z,2.30
2019-01-10T18:50:40.240Z,2.25
2019-01-10T18:53:10.204Z,1.95
2019-01-10T18:55:39.616Z,1.82
2019-01-10T18:58:09.262Z,2.77
2019-01-10T19:00:39.415Z,2.08
2019-01-10T19:03:09.007Z,1.90
2019-01-10T19:05:38.774Z,2.10
2019-01-10T19:08:08.500Z,2.12
2019-01-10T19:10:38.760Z,2.42
2019-01-10T19:13:09.094Z,2.50
2019-01-10T19:15:38.726Z,3.55
2019-01-10T19:18:10.878Z,2.37
2019-01-10T19:20:41.374Z,2.77
2019-01-10T19:23:13.228Z,2.60
2019-01-10T19:25:43.164Z,2.62
2019-01-10T19:28:12.713Z,2.27
2019-01-10T19:30:41.915Z,2.30
2019-01-10T19:33:11.155Z,1.47
2019-01-10T19:35:40.225Z,1.45
2019-01-10T19:38:09.390Z,1.75
2019-01-10T19:40:38.566Z,1.40
2019-01-10T19:43:07.676Z,1.80
2019-01-10T19:45:37.852Z,1.55
2019-01-10T19:48:09.769Z,1.20
2019-01-10T19:50:37.770Z,1.17
2019-01-10T19:53:06.862Z,1.37
2019-01-10T19:55:35.961Z,1.72
2019-01-10T19:58:05.184Z,1.80
2019-01-10T20:00:42.662Z,1.80
2019-01-10T20:03:11.731Z,1.90
2019-01-10T20:05:40.878Z,2.75
2019-01-10T20:08:10.006Z,2.05
2019-01-10T20:10:39.160Z,1.98
2019-01-10T20:13:08.273Z,2.15
2019-01-10T20:15:37.469Z,2.70
2019-01-10T20:18:07.715Z,2.58
2019-01-10T20:20:43.283Z,3.17
2019-01-10T20:23:19.129Z,3.10
2019-01-10T20:25:48.235Z,2.90
2019-01-10T20:28:17.276Z,3.10
2019-01-10T20:30:46.377Z,3.30
2019-01-10T20:33:15.516Z,3.65
2019-01-10T20:35:44.606Z,2.95
2019-01-10T20:38:13.693Z,3.90
2019-01-10T20:40:42.902Z,3.42
2019-01-10T20:43:11.997Z,3.67
2019-01-10T20:45:41.331Z,3.42
2019-01-10T20:48:10.486Z,4.03
2019-01-10T20:50:39.636Z,4.17
2019-01-10T20:53:08.963Z,4.62
2019-01-10T20:55:38.019Z,4.58
2019-01-10T20:58:07.829Z,4.37
2019-01-10T21:00:37.059Z,4.40
2019-01-10T21:03:06.161Z,5.80
2019-01-10T21:05:35.374Z,5.55
2019-01-10T21:08:04.479Z,5.40
2019-01-10T21:10:33.651Z,5.42
2019-01-10T21:13:02.796Z,6.60
2019-01-10T21:15:32.154Z,6.85
2019-01-10T21:18:01.348Z,7.95
2019-01-10T21:20:30.426Z,6.85
2019-01-10T21:23:00.172Z,7.55
2019-01-10T21:25:29.277Z,6.87
2019-01-10T21:27:58.675Z,8.45
2019-01-10T21:30:27.743Z,8.58
2019-01-10T21:32:56.923Z,8.78
2019-01-10T21:35:26.193Z,7.83
2019-01-10T21:37:55.665Z,9.13
2019-01-10T21:41:01.880Z,9.93
2019-01-10T21:43:30.990Z,9.75
2019-01-10T21:46:00.120Z,9.93
2019-01-10T21:48:34.875Z,9.93
2019-01-10T21:51:00.256Z,8.90
2019-01-10T21:53:29.350Z,10.10
2019-01-10T21:55:58.420Z,10.72
2019-01-10T21:58:27.370Z,10.08
2019-01-10T22:00:56.662Z,9.98
2019-01-10T22:03:25.750Z,12.53
2019-01-10T22:05:54.791Z,11.05
2019-01-10T22:08:24.013Z,10.23
2019-01-10T22:10:53.076Z,11.10
2019-01-10T22:13:22.111Z,10.72
2019-01-10T22:15:51.078Z,12.23
2019-01-10T22:18:20.152Z,10.53
2019-01-10T22:20:49.203Z,10.90
2019-01-10T22:23:18.261Z,10.95
2019-01-10T22:25:47.327Z,10.88
2019-01-10T22:28:16.362Z,10.45
2019-01-10T22:30:48.254Z,12.53
2019-01-10T22:33:17.233Z,12.07
2019-01-10T22:35:46.248Z,13.10
2019-01-10T22:38:15.461Z,11.80
2019-01-10T22:40:44.506Z,10.63
2019-01-10T22:43:13.557Z,12.73
2019-01-10T22:45:42.907Z,14.90
2019-01-10T22:48:12.217Z,13.08
2019-01-10T22:50:41.276Z,13.72
2019-01-10T22:53:10.284Z,14.23
2019-01-10T22:55:39.428Z,14.47
2019-01-10T22:58:08.916Z,14.75
2019-01-10T23:00:59.673Z,14.05
2019-01-10T23:03:28.757Z,16.65
2019-01-10T23:05:57.769Z,16.73
2019-01-10T23:08:26.901Z,16.73
2019-01-10T23:10:57.261Z,16.40
2019-01-10T23:13:26.332Z,16.57
2019-01-10T23:15:56.934Z,16.65
2019-01-10T23:18:25.874Z,17.32
2019-01-10T23:20:59.858Z,18.20
2019-01-10T23:23:29.061Z,17.77
2019-01-10T23:25:58.130Z,17.37
2019-01-10T23:28:27.361Z,18.02
2019-01-10T23:31:00.746Z,18.98
2019-01-10T23:33:30.026Z,16.97
2019-01-10T23:36:01.045Z,18.92
2019-01-10T23:38:30.163Z,19.32
2019-01-10T23:40:59.734Z,19.92
2019-01-10T23:43:29.195Z,20.72
2019-01-10T23:45:58.285Z,22.10
2019-01-10T23:48:27.309Z,20.77
2019-01-10T23:50:56.421Z,21.80
2019-01-10T23:53:25.405Z,21.17
2019-01-10T23:55:54.412Z,23.20
2019-01-10T23:58:23.439Z,23.73
